Time;durP1;ratioP1;P1;durP2;ratioP2;P2;SDS_P1;SDS_P2;PMS_P1;PMS_P2;Temp;Humidity;BMP_temperature;BMP_pressure;BME280_temperature;BME280_humidity;BME280_pressure;Samples;Min_cycle;Max_cycle;Signal;HPM_P1;HPM_P2
2021/10/24 00:00:55;;;;;;;1999.90;999.90;;;7.00;99.90;;;;;;5015808;28;20831;-68
2021/10/24 00:03:20;;;;;;;1999.90;999.90;;;7.00;99.90;;;;;;5015958;28;20663;-68
2021/10/24 00:05:46;;;;;;;1999.90;999.90;;;7.00;99.90;;;;;;5015852;28;20478;-68
2021/10/24 00:08:12;;;;;;;1999.90;999.90;;;7.00;99.90;;;;;;5015813;28;20283;-68
2021/10/24 00:10:37;;;;;;;1999.90;999.90;;;7.00;99.90;;;;;;5015655;28;20257;-68
2021/10/24 00:13:03;;;;;;;1999.90;999.90;;;7.00;99.90;;;;;;5015832;28;20165;-68
2021/10/24 00:15:29;;;;;;;1999.90;999.90;;;7.10;99.90;;;;;;5015595;28;20236;-68
2021/10/24 00:17:55;;;;;;;1999.90;999.90;;;7.00;99.90;;;;;;5015662;28;20179;-68
2021/10/24 00:20:20;;;;;;;1999.90;999.90;;;7.00;99.90;;;;;;5015458;28;20499;-68
2021/10/24 00:22:46;;;;;;;1999.90;999.90;;;7.00;99.90;;;;;;5015587;28;20180;-68
2021/10/24 00:25:11;;;;;;;1999.90;999.90;;;7.10;99.90;;;;;;5015471;28;20196;-68
2021/10/24 00:27:37;;;;;;;1999.90;999.90;;;7.10;99.90;;;;;;5015458;28;20236;-68
2021/10/24 00:30:04;;;;;;;1999.90;999.90;;;7.10;99.90;;;;;;5015334;28;20199;-68
2021/10/24 00:32:30;;;;;;;1999.90;999.90;;;7.10;99.90;;;;;;5015421;28;20602;-68
2021/10/24 00:34:55;;;;;;;1999.90;999.90;;;7.10;99.90;;;;;;5015318;28;20506;-68
2021/10/24 00:37:21;;;;;;;1999.90;999.90;;;7.10;99.90;;;;;;5015455;28;20663;-68
2021/10/24 00:39:47;;;;;;;1999.90;999.90;;;7.10;99.90;;;;;;5015336;28;20180;-68
2021/10/24 00:42:12;;;;;;;1999.90;999.90;;;7.10;99.90;;;;;;5015068;28;20173;-68
2021/10/24 00:44:38;;;;;;;1999.90;999.90;;;7.00;99.90;;;;;;5015119;28;20420;-68
2021/10/24 00:47:06;;;;;;;1999.90;999.90;;;7.00;99.90;;;;;;5015123;28;20676;-68
2021/10/24 00:49:32;;;;;;;1999.90;999.90;;;7.00;99.90;;;;;;5015167;28;20161;-68
2021/10/24 00:51:58;;;;;;;1999.90;999.90;;;7.00;99.90;;;;;;5014927;28;20403;-68
2021/10/24 00:54:26;;;;;;;1999.90;999.90;;;7.00;99.90;;;;;;5015004;28;20427;-68
2021/10/24 00:56:55;;;;;;;1999.90;999.90;;;7.00;99.90;;;;;;5014935;28;20412;-68
2021/10/24 00:59:23;;;;;;;1999.90;999.90;;;7.00;99.90;;;;;;5013613;28;20949;-68
2021/10/24 01:01:49;;;;;;;1999.90;999.90;;;6.90;99.90;;;;;;5014638;28;20479;-68
2021/10/24 01:04:15;;;;;;;1999.90;999.90;;;6.90;99.90;;;;;;5014815;28;20735;-68
2021/10/24 01:06:42;;;;;;;1999.90;999.90;;;6.90;99.90;;;;;;5014855;28;20487;-67
2021/10/24 01:09:12;;;;;;;1999.90;999.90;;;6.80;99.90;;;;;;5014851;28;20459;-68
2021/10/24 01:11:41;;;;;;;1999.90;999.90;;;6.80;99.90;;;;;;5014597;28;20722;-68
2021/10/24 01:14:07;;;;;;;1999.90;999.90;;;6.80;99.90;;;;;;5014347;28;20963;-68
2021/10/24 01:16:35;;;;;;;1999.90;999.90;;;6.70;99.90;;;;;;5014647;28;20499;-67
2021/10/24 01:19:05;;;;;;;1999.90;999.90;;;6.80;99.90;;;;;;5014614;28;20959;-68
2021/10/24 01:21:31;;;;;;;1999.90;999.90;;;6.80;99.90;;;;;;5014379;28;20440;-68
2021/10/24 01:23:57;;;;;;;1999.90;999.90;;;6.70;99.90;;;;;;5014436;28;20423;-68
2021/10/24 01:26:23;;;;;;;1999.90;999.90;;;6.70;99.90;;;;;;5014420;28;20538;-68
2021/10/24 01:28:49;;;;;;;1999.90;999.90;;;6.70;99.90;;;;;;5014332;28;20499;-68
2021/10/24 01:31:14;;;;;;;1999.90;999.90;;;6.70;99.90;;;;;;5014153;28;20172;-68
2021/10/24 01:33:40;;;;;;;1999.90;999.90;;;6.60;99.90;;;;;;5014187;28;20157;-68
2021/10/24 01:36:08;;;;;;;1999.90;999.90;;;6.60;99.90;;;;;;5014223;28;20173;-68
2021/10/24 01:38:35;;;;;;;1999.90;999.90;;;6.60;99.90;;;;;;5014230;28;20173;-68
2021/10/24 01:41:02;;;;;;;1999.90;999.90;;;6.50;99.90;;;;;;5013932;28;20404;-68
2021/10/24 01:43:28;;;;;;;1999.90;999.90;;;6.50;99.90;;;;;;5013987;28;20408;-68
2021/10/24 01:45:54;;;;;;;1999.90;999.90;;;6.50;99.90;;;;;;5014194;28;20403;-68
2021/10/24 01:48:21;;;;;;;1999.90;999.90;;;6.40;99.90;;;;;;5013913;28;20881;-68
2021/10/24 01:50:48;;;;;;;1999.90;999.90;;;6.40;99.90;;;;;;5013857;28;20404;-68
2021/10/24 01:53:38;;;;;;;1999.90;999.90;;;6.40;99.90;;;;;;5013856;28;20408;-68
2021/10/24 01:56:04;;;;;;;1999.90;999.90;;;6.40;99.90;;;;;;5013857;28;20396;-68
2021/10/24 01:58:30;;;;;;;1999.90;999.90;;;6.40;99.90;;;;;;5013844;28;20397;-68
2021/10/24 02:00:56;;;;;;;1999.90;999.90;;;6.40;99.90;;;;;;5013758;28;20878;-68
2021/10/24 02:03:21;;;;;;;1999.90;999.90;;;6.40;99.90;;;;;;5013771;28;20169;-68
2021/10/24 02:05:47;;;;;;;1999.90;999.90;;;6.30;99.90;;;;;;5013635;28;20451;-68
2021/10/24 02:08:14;;;;;;;1999.90;999.90;;;6.30;99.90;;;;;;5013727;28;20670;-68
2021/10/24 02:10:40;;;;;;;1999.90;999.90;;;6.30;99.90;;;;;;5012976;28;20635;-68
2021/10/24 02:13:08;;;;;;;1999.90;999.90;;;6.20;99.90;;;;;;5013505;28;20400;-68
2021/10/24 02:15:35;;;;;;;1999.90;999.90;;;6.30;99.90;;;;;;5013343;28;20435;-67
2021/10/24 02:18:02;;;;;;;1999.90;999.90;;;6.20;99.90;;;;;;5013465;28;20933;-68
2021/10/24 02:20:29;;;;;;;1999.90;999.90;;;6.20;99.90;;;;;;5013280;28;20411;-68
2021/10/24 02:22:55;;;;;;;1999.90;999.90;;;6.20;99.90;;;;;;5013350;28;20408;-68
2021/10/24 02:25:21;;;;;;;1999.90;999.90;;;6.20;99.90;;;;;;5013240;28;20466;-68
2021/10/24 02:27:47;;;;;;;1999.90;999.90;;;6.20;99.90;;;;;;5013176;28;20550;-68
2021/10/24 02:30:14;;;;;;;1999.90;999.90;;;6.20;99.90;;;;;;5013183;28;20503;-68
2021/10/24 02:32:40;;;;;;;1999.90;999.90;;;6.10;99.90;;;;;;5013223;28;20162;-68
2021/10/24 02:35:07;;;;;;;1999.90;999.90;;;6.10;99.90;;;;;;5013072;28;20459;-68
2021/10/24 02:37:33;;;;;;;1999.90;999.90;;;6.10;99.90;;;;;;5013100;28;20458;-68
2021/10/24 02:39:58;;;;;;;1999.90;999.90;;;6.00;99.90;;;;;;5013067;28;20403;-68
2021/10/24 02:42:24;;;;;;;1999.90;999.90;;;6.10;99.90;;;;;;5012866;28;20542;-68
2021/10/24 02:44:49;;;;;;;1999.90;999.90;;;6.10;99.90;;;;;;5012947;28;20188;-68
2021/10/24 02:47:17;;;;;;;1999.90;999.90;;;6.10;99.90;;;;;;5012726;28;20203;-68
2021/10/24 02:49:44;;;;;;;1999.90;999.90;;;6.10;99.90;;;;;;5012988;28;20165;-67
2021/10/24 02:52:10;;;;;;;1999.90;999.90;;;6.00;99.90;;;;;;5012742;28;20434;-68
2021/10/24 02:54:35;;;;;;;1999.90;999.90;;;6.10;99.90;;;;;;5012885;28;20472;-68
2021/10/24 02:57:05;;;;;;;1999.90;999.90;;;6.00;99.90;;;;;;5012789;28;20440;-68
2021/10/24 02:59:30;;;;;;;1999.90;999.90;;;6.00;99.90;;;;;;5012924;28;20173;-68
2021/10/24 03:01:56;;;;;;;1999.90;999.90;;;6.00;99.90;;;;;;5012577;28;20419;-68
2021/10/24 03:04:22;;;;;;;1999.90;999.90;;;5.90;99.90;;;;;;5012510;28;20439;-68
2021/10/24 03:06:48;;;;;;;1999.90;999.90;;;6.00;99.90;;;;;;5012565;28;20196;-68
2021/10/24 03:09:13;;;;;;;1999.90;999.90;;;5.90;99.90;;;;;;5012638;28;20645;-67
2021/10/24 03:11:39;;;;;;;1999.90;999.90;;;5.90;99.90;;;;;;5011944;28;20400;-67
2021/10/24 03:14:05;;;;;;;1999.90;999.90;;;5.80;99.90;;;;;;5012285;28;20576;-68
2021/10/24 03:16:33;;;;;;;1999.90;999.90;;;5.80;99.90;;;;;;5012608;28;20243;-68
2021/10/24 03:18:59;;;;;;;1999.90;999.90;;;5.80;99.90;;;;;;5012498;28;20409;-67
2021/10/24 03:21:25;;;;;;;1999.90;999.90;;;5.70;99.90;;;;;;5011734;28;20408;-68
2021/10/24 03:23:51;;;;;;;1999.90;999.90;;;5.70;99.90;;;;;;5012184;28;20427;-68
2021/10/24 03:26:16;;;;;;;1999.90;999.90;;;5.70;99.90;;;;;;5012230;28;20404;-68
2021/10/24 03:28:42;;;;;;;1999.90;999.90;;;5.70;99.90;;;;;;5012835;28;20219;-67
2021/10/24 03:31:08;;;;;;;1999.90;999.90;;;5.70;99.90;;;;;;5012049;28;20411;-67
2021/10/24 03:33:33;;;;;;;1999.90;999.90;;;5.70;99.90;;;;;;5012107;28;20180;-67
2021/10/24 03:35:59;;;;;;;1999.90;999.90;;;5.70;99.90;;;;;;5012274;28;20176;-68
2021/10/24 03:38:25;;;;;;;1999.90;999.90;;;5.60;99.90;;;;;;5012198;28;20172;-67
2021/10/24 03:40:50;;;;;;;1999.90;999.90;;;5.60;99.90;;;;;;5011881;28;20195;-67
2021/10/24 03:43:16;;;;;;;1999.90;999.90;;;5.50;99.90;;;;;;5012225;28;20686;-68
2021/10/24 03:45:41;;;;;;;1999.90;999.90;;;5.50;99.90;;;;;;5012083;28;20193;-68
2021/10/24 03:48:07;;;;;;;1999.90;999.90;;;5.40;99.90;;;;;;5012099;28;20673;-69
2021/10/24 03:50:33;;;;;;;1999.90;999.90;;;5.40;99.90;;;;;;5011878;28;20251;-68
2021/10/24 03:52:59;;;;;;;1999.90;999.90;;;5.30;99.90;;;;;;5012143;28;20907;-67
2021/10/24 03:55:25;;;;;;;1999.90;999.90;;;5.30;99.90;;;;;;5011916;28;20435;-68
2021/10/24 03:57:51;;;;;;;1999.90;999.90;;;5.20;99.90;;;;;;5012145;28;20534;-68
2021/10/24 04:00:17;;;;;;;1999.90;999.90;;;5.20;99.90;;;;;;5012048;28;20404;-67
2021/10/24 04:02:49;;;;;;;1999.90;999.90;;;5.20;99.90;;;;;;5011941;28;20259;-68
2021/10/24 04:05:15;;;;;;;1999.90;999.90;;;5.10;99.90;;;;;;5011915;28;20227;-67
2021/10/24 04:07:41;;;;;;;1999.90;999.90;;;5.20;99.90;;;;;;5011998;28;20475;-68
2021/10/24 04:10:07;;;;;;;1999.90;999.90;;;5.20;99.90;;;;;;5011952;28;20166;-67
2021/10/24 04:12:33;;;;;;;1999.90;999.90;;;5.10;99.90;;;;;;5011779;28;20169;-67
2021/10/24 04:14:58;;;;;;;1999.90;999.90;;;5.10;99.90;;;;;;5012120;28;20546;-68
2021/10/24 04:17:24;;;;;;;1999.90;999.90;;;5.10;99.90;;;;;;5012943;28;20588;-68
2021/10/24 04:19:49;;;;;;;1999.90;999.90;;;5.00;99.90;;;;;;5011840;28;20173;-68
2021/10/24 04:22:15;;;;;;;1999.90;999.90;;;5.00;99.90;;;;;;5011577;28;20264;-69
2021/10/24 04:24:41;;;;;;;1999.90;999.90;;;5.00;99.90;;;;;;5012019;28;20218;-68
2021/10/24 04:27:06;;;;;;;1999.90;999.90;;;5.00;99.90;;;;;;5011695;28;20197;-68
2021/10/24 04:29:32;;;;;;;1999.90;999.90;;;5.00;99.90;;;;;;5011815;28;20173;-69
2021/10/24 04:31:57;;;;;;;1999.90;999.90;;;5.00;99.90;;;;;;5011616;28;20165;-68
2021/10/24 04:34:23;;;;;;;1999.90;999.90;;;4.90;99.90;;;;;;5015245;28;20208;-68
2021/10/24 04:36:48;;;;;;;1999.90;999.90;;;4.80;99.90;;;;;;5015407;28;20173;-69
2021/10/24 04:39:14;;;;;;;1999.90;999.90;;;4.70;99.90;;;;;;5015304;28;20188;-68
2021/10/24 04:41:40;;;;;;;1999.90;999.90;;;4.70;99.90;;;;;;5015092;28;20169;-68
2021/10/24 04:44:05;;;;;;;1999.90;999.90;;;4.70;99.90;;;;;;5015180;28;20204;-68
2021/10/24 04:46:31;;;;;;;1999.90;999.90;;;4.80;99.90;;;;;;5015071;28;20193;-68
2021/10/24 04:48:57;;;;;;;1999.90;999.90;;;4.80;99.90;;;;;;5015099;28;20531;-68
2021/10/24 04:51:23;;;;;;;1999.90;999.90;;;4.80;99.90;;;;;;5015055;28;20184;-68
2021/10/24 04:53:49;;;;;;;1999.90;999.90;;;4.70;99.90;;;;;;5015146;28;20443;-68
2021/10/24 04:56:14;;;;;;;1999.90;999.90;;;4.70;99.90;;;;;;5015006;28;20545;-68
2021/10/24 04:58:40;;;;;;;1999.90;999.90;;;4.70;99.90;;;;;;5015018;28;20809;-69
2021/10/24 05:01:05;;;;;;;1999.90;999.90;;;4.80;99.90;;;;;;5014652;28;20215;-68
2021/10/24 05:03:32;;;;;;;1999.90;999.90;;;4.80;99.90;;;;;;5014704;28;20169;-68
2021/10/24 05:05:57;;;;;;;1999.90;999.90;;;4.80;99.90;;;;;;5014861;28;20165;-68
2021/10/24 05:08:23;;;;;;;1999.90;999.90;;;4.80;99.90;;;;;;5014701;28;20447;-69
2021/10/24 05:10:48;;;;;;;1999.90;999.90;;;4.80;99.90;;;;;;5014494;28;20176;-69
2021/10/24 05:13:16;;;;;;;1999.90;999.90;;;4.70;99.90;;;;;;5014688;28;20651;-69
2021/10/24 05:15:41;;;;;;;1999.90;999.90;;;4.70;99.90;;;;;;5014492;28;20556;-69
2021/10/24 05:18:07;;;;;;;1999.90;999.90;;;4.70;99.90;;;;;;5014603;28;20422;-68
2021/10/24 05:20:32;;;;;;;1999.90;999.90;;;4.60;99.90;;;;;;5014396;28;20172;-68
2021/10/24 05:22:58;;;;;;;1999.90;999.90;;;4.60;99.90;;;;;;5014501;28;20203;-68
2021/10/24 05:25:24;;;;;;;1999.90;999.90;;;4.70;99.90;;;;;;5014393;28;20659;-69
2021/10/24 05:27:54;;;;;;;1999.90;999.90;;;4.60;99.90;;;;;;5014379;28;20457;-68
2021/10/24 05:30:21;;;;;;;1999.90;999.90;;;4.60;99.90;;;;;;5014366;28;20268;-68
2021/10/24 05:32:47;;;;;;;1999.90;999.90;;;4.60;99.90;;;;;;5013979;28;20443;-68
2021/10/24 05:35:13;;;;;;;1999.90;999.90;;;4.60;99.90;;;;;;5014283;28;20435;-68
2021/10/24 05:37:38;;;;;;;1999.90;999.90;;;4.50;99.90;;;;;;5012979;28;20846;-68
2021/10/24 05:40:04;;;;;;;1999.90;999.90;;;4.50;99.90;;;;;;5014140;28;20231;-68
2021/10/24 05:42:30;;;;;;;1999.90;999.90;;;4.50;99.90;;;;;;5013795;28;20216;-69
2021/10/24 05:44:56;;;;;;;1999.90;999.90;;;4.50;99.90;;;;;;5013330;28;20424;-68
2021/10/24 05:47:21;;;;;;;1999.90;999.90;;;4.50;99.90;;;;;;5014002;28;20215;-68
2021/10/24 05:49:49;;;;;;;1999.90;999.90;;;4.50;99.90;;;;;;5014043;28;20180;-68
2021/10/24 05:52:16;;;;;;;1999.90;999.90;;;4.50;99.90;;;;;;5013702;28;20172;-68
2021/10/24 05:54:41;;;;;;;1999.90;999.90;;;4.50;99.90;;;;;;5013901;28;20431;-68
2021/10/24 05:57:07;;;;;;;1999.90;999.90;;;4.50;99.90;;;;;;5013947;28;20913;-69
2021/10/24 05:59:33;;;;;;;1999.90;999.90;;;4.50;99.90;;;;;;5013882;28;20173;-68
2021/10/24 06:01:58;;;;;;;1999.90;999.90;;;4.50;99.90;;;;;;5013491;28;20548;-69
2021/10/24 06:04:25;;;;;;;1999.90;999.90;;;4.50;99.90;;;;;;5013704;28;20275;-68
2021/10/24 06:06:50;;;;;;;1999.90;999.90;;;4.50;99.90;;;;;;5013610;28;20193;-69
2021/10/24 06:09:16;;;;;;;1999.90;999.90;;;4.50;99.90;;;;;;5013585;28;20423;-69
2021/10/24 06:11:55;;;;;;;1999.90;999.90;;;4.50;99.90;;;;;;5013409;28;20219;-68
2021/10/24 06:14:21;;;;;;;1999.90;999.90;;;4.50;99.90;;;;;;5013332;28;20200;-69
2021/10/24 06:16:47;;;;;;;1999.90;999.90;;;4.50;99.90;;;;;;5013492;28;20419;-68
2021/10/24 06:19:12;;;;;;;1999.90;999.90;;;4.50;99.90;;;;;;5013535;28;20491;-68
2021/10/24 06:21:38;;;;;;;1999.90;999.90;;;4.50;99.90;;;;;;5013189;28;20165;-69
2021/10/24 06:24:04;;;;;;;1999.90;999.90;;;4.50;99.90;;;;;;5013348;28;20575;-68
2021/10/24 06:26:30;;;;;;;1999.90;999.90;;;4.50;99.90;;;;;;5013305;28;20205;-68
2021/10/24 06:28:56;;;;;;;1999.90;999.90;;;4.60;99.90;;;;;;5013299;28;20173;-68
2021/10/24 06:31:21;;;;;;;1999.90;999.90;;;4.50;99.90;;;;;;5012967;28;20466;-68
2021/10/24 06:33:47;;;;;;;1999.90;999.90;;;4.50;99.90;;;;;;5013097;28;20524;-68
2021/10/24 06:36:13;;;;;;;1999.90;999.90;;;4.60;99.90;;;;;;5013230;28;20189;-68
2021/10/24 06:38:38;;;;;;;1999.90;999.90;;;4.60;99.90;;;;;;5012989;28;20222;-68
2021/10/24 06:41:04;;;;;;;1999.90;999.90;;;4.60;99.90;;;;;;5012774;28;20173;-69
2021/10/24 06:43:29;;;;;;;1999.90;999.90;;;4.60;99.90;;;;;;5012799;28;20176;-68
2021/10/24 06:45:55;;;;;;;1999.90;999.90;;;4.60;99.90;;;;;;5013296;28;20229;-68
2021/10/24 06:48:21;;;;;;;1999.90;999.90;;;4.70;99.90;;;;;;5012910;28;20197;-68
2021/10/24 06:50:46;;;;;;;1999.90;999.90;;;4.70;99.90;;;;;;5012707;28;20192;-68
2021/10/24 06:53:12;;;;;;;1999.90;999.90;;;4.70;99.90;;;;;;5012795;28;20635;-68
2021/10/24 06:55:37;;;;;;;1999.90;999.90;;;4.70;99.90;;;;;;5012740;28;20220;-68
2021/10/24 06:58:03;;;;;;;1999.90;999.90;;;4.70;99.90;;;;;;5012894;28;20160;-68
2021/10/24 07:00:30;;;;;;;1999.90;999.90;;;4.70;99.90;;;;;;5012784;28;20569;-68
2021/10/24 07:02:56;;;;;;;1999.90;999.90;;;4.70;99.90;;;;;;5012588;28;20196;-68
2021/10/24 07:05:23;;;;;;;1999.90;999.90;;;4.70;99.90;;;;;;5012667;28;20486;-68
2021/10/24 07:07:49;;;;;;;1999.90;999.90;;;4.80;99.90;;;;;;5011302;28;20491;-69
2021/10/24 07:10:16;;;;;;;1999.90;999.90;;;4.80;99.90;;;;;;5012607;28;20435;-68
2021/10/24 07:12:42;;;;;;;1999.90;999.90;;;4.90;99.90;;;;;;5012257;28;20400;-68
2021/10/24 07:15:10;;;;;;;1999.90;999.90;;;5.00;99.90;;;;;;5012524;28;20975;-68
2021/10/24 07:17:37;;;;;;;1999.90;999.90;;;5.00;99.90;;;;;;5012506;28;20200;-68
2021/10/24 07:20:05;;;;;;;1999.90;999.90;;;5.10;99.90;;;;;;5012539;28;20408;-69
2021/10/24 07:22:30;;;;;;;1999.90;999.90;;;5.20;99.90;;;;;;5012091;28;20176;-68
2021/10/24 07:24:56;;;;;;;1999.90;999.90;;;5.20;99.90;;;;;;5012352;28;20519;-68
2021/10/24 07:27:21;;;;;;;1999.90;999.90;;;5.20;99.90;;;;;;5012312;28;20192;-68
2021/10/24 07:29:47;;;;;;;1999.90;999.90;;;5.30;99.90;;;;;;5012308;28;20674;-68
2021/10/24 07:32:13;;;;;;;1999.90;999.90;;;5.40;99.90;;;;;;5012084;28;20619;-67
2021/10/24 07:34:38;;;;;;;1999.90;999.90;;;5.60;99.90;;;;;;5012268;28;20272;-67
2021/10/24 07:37:04;;;;;;;1999.90;999.90;;;5.70;99.90;;;;;;5011295;28;20761;-68
2021/10/24 07:39:29;;;;;;;1999.90;999.90;;;5.80;99.90;;;;;;5012305;28;20169;-68
2021/10/24 07:41:55;;;;;;;1999.90;999.90;;;5.80;99.90;;;;;;5012031;28;20630;-68
2021/10/24 07:44:21;;;;;;;1999.90;999.90;;;5.80;99.90;;;;;;5012150;28;20213;-67
2021/10/24 07:46:47;;;;;;;1999.90;999.90;;;5.80;99.90;;;;;;5012099;28;20199;-69
2021/10/24 07:49:13;;;;;;;1999.90;999.90;;;5.90;99.90;;;;;;5012241;28;20183;-68
2021/10/24 07:51:39;;;;;;;1999.90;999.90;;;5.90;99.90;;;;;;5011866;28;20432;-68
2021/10/24 07:54:05;;;;;;;1999.90;999.90;;;6.00;99.90;;;;;;5012011;28;20420;-68
2021/10/24 07:56:36;;;;;;;1999.90;999.90;;;6.10;99.90;;;;;;5012563;28;20482;-68
2021/10/24 07:59:03;;;;;;;1999.90;999.90;;;6.30;99.90;;;;;;5012024;28;20415;-68
2021/10/24 08:01:30;;;;;;;1999.90;999.90;;;6.30;99.90;;;;;;5011848;28;20830;-68
2021/10/24 08:03:55;;;;;;;1999.90;999.90;;;6.40;99.90;;;;;;5011906;28;20470;-68
2021/10/24 08:06:22;;;;;;;1999.90;999.90;;;6.40;99.90;;;;;;5011936;28;20777;-68
2021/10/24 08:08:49;;;;;;;1999.90;999.90;;;6.50;99.90;;;;;;5015074;28;20252;-68
2021/10/24 08:11:15;;;;;;;1999.90;999.90;;;6.60;99.90;;;;;;5015696;28;20878;-68
2021/10/24 08:13:40;;;;;;;1999.90;999.90;;;6.60;99.90;;;;;;5015596;28;20395;-68
2021/10/24 08:16:06;;;;;;;1999.90;999.90;;;6.70;99.90;;;;;;5015827;28;20461;-68
2021/10/24 08:18:31;;;;;;;1999.90;999.90;;;6.70;99.90;;;;;;5015769;28;20176;-67
2021/10/24 08:20:57;;;;;;;1999.90;999.90;;;6.80;99.90;;;;;;5015438;28;20169;-69
2021/10/24 08:23:25;;;;;;;1999.90;999.90;;;6.80;99.90;;;;;;5015400;28;20175;-68
2021/10/24 08:25:51;;;;;;;1999.90;999.90;;;6.90;99.90;;;;;;5015564;28;20229;-68
2021/10/24 08:28:17;;;;;;;1999.90;999.90;;;7.00;99.90;;;;;;5015516;28;20443;-68
2021/10/24 08:30:42;;;;;;;1999.90;999.90;;;7.00;99.90;;;;;;5015480;28;20412;-68
2021/10/24 08:33:08;;;;;;;1999.90;999.90;;;7.10;99.90;;;;;;5015254;28;20231;-68
2021/10/24 08:35:34;;;;;;;1999.90;999.90;;;7.20;99.90;;;;;;5015345;28;20287;-68
2021/10/24 08:38:00;;;;;;;1999.90;999.90;;;7.10;99.90;;;;;;5015358;28;20666;-69
2021/10/24 08:40:28;;;;;;;1999.90;999.90;;;7.20;99.90;;;;;;5015362;28;20638;-68
2021/10/24 08:42:59;;;;;;;1999.90;999.90;;;7.30;99.90;;;;;;5014996;28;20495;-68
2021/10/24 08:45:27;;;;;;;1999.90;999.90;;;7.40;99.90;;;;;;5015191;28;20448;-68
2021/10/24 08:47:53;;;;;;;1999.90;999.90;;;7.40;99.90;;;;;;5015137;28;20501;-68
2021/10/24 08:50:20;;;;;;;1999.90;999.90;;;7.50;99.90;;;;;;5015110;28;20414;-68
2021/10/24 08:52:50;;;;;;;1999.90;999.90;;;7.60;99.90;;;;;;5014817;28;20824;-68
2021/10/24 08:55:16;;;;;;;1999.90;999.90;;;7.60;99.90;;;;;;5015041;28;20450;-69
2021/10/24 08:57:42;;;;;;;1999.90;999.90;;;7.70;99.90;;;;;;5014962;28;20818;-68
2021/10/24 09:00:08;;;;;;;1999.90;999.90;;;7.80;99.90;;;;;;5014965;28;20169;-68
2021/10/24 09:02:54;;;;;;;1999.90;999.90;;;7.80;99.90;;;;;;5014730;28;20180;-68
2021/10/24 09:05:42;;;;;;;1999.90;999.90;;;7.90;99.90;;;;;;5014729;28;20487;-68
2021/10/24 09:08:23;;;;;;;1999.90;999.90;;;8.00;99.90;;;;;;5014775;28;20545;-68
2021/10/24 09:10:52;;;;;;;1999.90;999.90;;;8.10;99.90;;;;;;5014803;28;20400;-69
2021/10/24 09:13:24;;;;;;;1999.90;999.90;;;8.10;99.90;;;;;;5014609;28;20404;-68
2021/10/24 09:15:56;;;;;;;1999.90;999.90;;;8.20;99.90;;;;;;5014531;28;20441;-68
2021/10/24 09:18:33;;;;;;;1999.90;999.90;;;8.20;99.90;;;;;;5011313;28;20412;-68
2021/10/24 09:21:19;;;;;;;1999.90;999.90;;;8.40;99.90;;;;;;5010292;28;20797;-69
2021/10/24 09:23:48;;;;;;;1999.90;999.90;;;8.40;99.90;;;;;;5010053;28;20814;-68
2021/10/24 09:26:27;;;;;;;1999.90;999.90;;;8.50;99.90;;;;;;5010562;28;20411;-68
2021/10/24 09:29:00;;;;;;;1999.90;999.90;;;8.60;99.90;;;;;;5010915;28;20459;-68
2021/10/24 09:31:28;;;;;;;1999.90;999.90;;;8.70;99.90;;;;;;5010158;28;20417;-68
2021/10/24 09:33:56;;;;;;;1999.90;999.90;;;8.80;99.90;;;;;;5010260;28;21001;-69
2021/10/24 09:36:25;;;;;;;1999.90;999.90;;;8.90;99.90;;;;;;5010093;28;20412;-68
2021/10/24 09:39:06;;;;;;;1999.90;999.90;;;9.00;99.90;;;;;;5010792;28;20490;-68
2021/10/24 09:41:32;;;;;;;1999.90;999.90;;;9.10;99.90;;;;;;5010071;28;20415;-69
2021/10/24 09:44:19;;;;;;;1999.90;999.90;;;9.20;99.90;;;;;;5010096;28;20475;-69
2021/10/24 09:46:56;;;;;;;1999.90;999.90;;;9.30;99.90;;;;;;5010479;28;20452;-69
2021/10/24 09:49:23;;;;;;;1999.90;999.90;;;9.40;99.90;;;;;;5012221;28;20417;-71
2021/10/24 09:51:50;;;;;;;1999.90;999.90;;;9.60;99.90;;;;;;5006955;28;20423;-70
2021/10/24 09:54:21;;;;;;;1999.90;999.90;;;9.70;99.90;;;;;;5011497;28;20953;-69
2021/10/24 09:56:48;;;;;;;1999.90;999.90;;;9.80;99.90;;;;;;5011637;28;20409;-69
2021/10/24 09:59:16;;;;;;;1999.90;999.90;;;9.90;99.90;;;;;;5011098;28;20433;-69
2021/10/24 10:01:44;;;;;;;1999.90;999.90;;;10.00;99.90;;;;;;5011113;28;20411;-67
2021/10/24 10:04:11;;;;;;;1999.90;999.90;;;10.20;99.90;;;;;;5011134;28;20430;-70
2021/10/24 10:06:38;;;;;;;1999.90;999.90;;;10.30;99.90;;;;;;5011455;28;20537;-70
2021/10/24 10:09:03;;;;;;;1999.90;999.90;;;10.40;99.90;;;;;;5011805;28;20492;-69
2021/10/24 10:11:29;;;;;;;1999.90;999.90;;;10.50;99.90;;;;;;5011357;28;20890;-70
2021/10/24 10:14:07;;;;;;;1999.90;999.90;;;10.60;99.90;;;;;;5010854;28;20205;-68
2021/10/24 10:16:36;;;;;;;1999.90;999.90;;;10.70;99.90;;;;;;5011650;28;20171;-69
2021/10/24 10:19:05;;;;;;;1999.90;999.90;;;10.90;99.90;;;;;;5011139;28;20453;-70
2021/10/24 10:21:48;;;;;;;1999.90;999.90;;;11.00;99.90;;;;;;5010828;28;20407;-69
2021/10/24 10:24:35;;;;;;;1999.90;999.90;;;11.10;99.90;;;;;;5011346;28;20454;-72
2021/10/24 10:27:40;;;;;;;1999.90;999.90;;;11.20;99.90;;;;;;5011673;28;20450;-71
2021/10/24 10:30:34;;;;;;;1999.90;999.90;;;11.30;99.90;;;;;;5010333;28;20423;-71
2021/10/24 10:33:01;;;;;;;1999.90;999.90;;;11.40;99.90;;;;;;5010845;28;20959;-67
2021/10/24 10:35:27;;;;;;;1999.90;999.90;;;11.50;99.90;;;;;;5010797;28;20586;-68
2021/10/24 10:37:57;;;;;;;1999.90;999.90;;;11.70;99.90;;;;;;5010707;28;20403;-67
2021/10/24 10:40:32;;;;;;;1999.90;999.90;;;11.90;99.90;;;;;;5011199;28;20469;-68
2021/10/24 10:43:01;;;;;;;1999.90;999.90;;;12.00;99.90;;;;;;5010293;28;20407;-68
2021/10/24 10:45:27;;;;;;;1999.90;999.90;;;12.10;99.90;;;;;;5011138;28;20426;-67
2021/10/24 10:47:57;;;;;;;1999.90;999.90;;;12.20;99.90;;;;;;5011121;28;21007;-69
2021/10/24 10:50:29;;;;;;;1999.90;999.90;;;12.30;99.90;;;;;;5010803;28;20215;-68
2021/10/24 10:53:03;;;;;;;1999.90;999.90;;;12.50;99.90;;;;;;5010469;28;20486;-68
2021/10/24 10:55:57;;;;;;;1999.90;999.90;;;12.60;99.90;;;;;;5011032;28;20821;-68
2021/10/24 10:58:27;;;;;;;1999.90;999.90;;;12.60;99.90;;;;;;5010428;28;20415;-68
2021/10/24 11:00:56;;;;;;;1999.90;999.90;;;12.70;99.90;;;;;;5010921;28;20408;-69
2021/10/24 11:04:06;;;;;;;1999.90;999.90;;;12.80;99.90;;;;;;5010326;28;20407;-67
2021/10/24 11:06:37;;;;;;;1999.90;999.90;;;13.00;99.90;;;;;;4988203;28;20455;-68
2021/10/24 11:09:11;;;;;;;1999.90;999.90;;;13.10;99.90;;;;;;4988738;28;20798;-68
2021/10/24 11:11:40;;;;;;;1999.90;999.90;;;13.20;99.90;;;;;;5001597;28;20408;-68
2021/10/24 11:14:12;;;;;;;1999.90;999.90;;;13.60;99.90;;;;;;5010024;28;20554;-69
2021/10/24 11:16:42;;;;;;;1999.90;999.90;;;14.10;99.90;;;;;;5010584;28;20415;-68
2021/10/24 11:22:04;;;;;;;1999.90;999.90;;;15.80;99.90;;;;;;5009846;28;20471;-68
2021/10/24 11:24:43;;;;;;;1999.90;999.90;;;16.80;99.90;;;;;;5010288;28;20427;-68
2021/10/24 11:27:11;;;;;;;1999.90;999.90;;;17.90;99.90;;;;;;5009931;28;20909;-68
2021/10/24 11:29:50;;;;;;;1999.90;999.90;;;18.60;99.90;;;;;;5010393;28;20779;-67
2021/10/24 11:32:27;;;;;;;1999.90;999.90;;;19.40;99.90;;;;;;5009902;28;20405;-69
2021/10/24 11:34:54;;;;;;;1999.90;999.90;;;20.00;99.90;;;;;;5009877;28;20420;-68
2021/10/24 11:37:45;;;;;;;1999.90;999.90;;;20.50;99.90;;;;;;5009986;28;20969;-68
2021/10/24 11:40:17;;;;;;;1999.90;999.90;;;21.10;99.90;;;;;;5010319;28;20929;-68
2021/10/24 11:43:09;;;;;;;1999.90;999.90;;;21.70;99.90;;;;;;5008833;28;20376;-68
2021/10/24 11:45:41;;;;;;;1999.90;999.90;;;22.20;97.40;;;;;;5010181;28;20422;-68
2021/10/24 11:48:17;;;;;;;1999.90;999.90;;;22.80;94.80;;;;;;5010118;28;20449;-69
2021/10/24 11:50:55;;;;;;;1999.90;999.90;;;23.20;86.90;;;;;;5009845;28;21138;-68
2021/10/24 11:53:42;;;;;;;1999.90;999.90;;;23.70;80.20;;;;;;5009764;28;20407;-69
2021/10/24 11:56:19;;;;;;;1999.90;999.90;;;24.20;75.30;;;;;;5010225;28;20374;-68
2021/10/24 11:59:11;;;;;;;1999.90;999.90;;;24.20;66.10;;;;;;5009943;28;20408;-68
2021/10/24 12:01:37;;;;;;;1999.90;999.90;;;24.70;66.20;;;;;;5009897;28;20375;-69
2021/10/24 12:04:05;;;;;;;1999.90;999.90;;;25.00;58.60;;;;;;5009832;28;20936;-69
2021/10/24 12:07:02;;;;;;;1999.90;999.90;;;24.90;58.30;;;;;;5010141;28;20752;-69
2021/10/24 12:09:34;;;;;;;1999.90;999.90;;;25.40;57.60;;;;;;5010231;28;20491;-68
2021/10/24 12:12:07;;;;;;;1999.90;999.90;;;25.70;52.60;;;;;;5009359;28;20408;-68
2021/10/24 12:14:44;;;;;;;1999.90;999.90;;;25.90;54.60;;;;;;5009854;28;20777;-69